createdAt,value
2023-05-02T00:01:43.268Z,21.07
2023-05-02T00:04:10.555Z,22.20
2023-05-02T00:06:37.881Z,20.10
2023-05-02T00:09:05.084Z,17.17
2023-05-02T00:11:32.307Z,17.83
2023-05-02T00:13:59.411Z,17.93
2023-05-02T00:16:26.615Z,19.03
2023-05-02T00:18:53.768Z,18.58
2023-05-02T00:21:20.939Z,18.23
2023-05-02T00:23:48.088Z,17.20
2023-05-02T00:26:15.332Z,15.63
2023-05-02T00:28:42.716Z,14.93
2023-05-02T00:31:10.511Z,15.97
2023-05-02T00:33:37.808Z,16.37
2023-05-02T00:36:04.964Z,18.27
2023-05-02T00:38:32.125Z,17.77
2023-05-02T00:40:59.294Z,17.40
2023-05-02T00:43:26.431Z,17.00
2023-05-02T00:45:53.710Z,17.23
2023-05-02T00:48:21.823Z,17.90
2023-05-02T00:50:48.963Z,18.50
2023-05-02T00:53:16.088Z,19.17
2023-05-02T00:55:43.258Z,18.87
2023-05-02T00:58:13.900Z,21.13
2023-05-02T01:00:50.198Z,19.93
2023-05-02T01:03:26.417Z,19.57
2023-05-02T01:06:00.112Z,19.83
2023-05-02T01:08:31.287Z,20.10
2023-05-02T01:11:07.034Z,19.43
2023-05-02T01:13:34.881Z,19.20
2023-05-02T01:16:02.379Z,19.20
2023-05-02T01:18:31.628Z,20.17
2023-05-02T01:20:59.775Z,20.13
2023-05-02T01:23:29.562Z,21.83
2023-05-02T01:25:59.693Z,24.40
2023-05-02T01:28:32.689Z,24.40
2023-05-02T01:30:59.843Z,22.03
2023-05-02T01:33:26.951Z,21.13
2023-05-02T01:35:54.070Z,21.27
2023-05-02T01:38:21.190Z,21.63
2023-05-02T01:40:48.396Z,22.07
2023-05-02T01:43:15.664Z,21.20
2023-05-02T01:45:43.451Z,23.00
2023-05-02T01:48:10.613Z,23.63
2023-05-02T01:50:37.827Z,26.23
2023-05-02T01:53:05.089Z,25.13
2023-05-02T01:55:32.250Z,24.47
2023-05-02T01:57:59.359Z,27.07
2023-05-02T02:00:26.495Z,28.60
2023-05-02T02:02:53.686Z,27.57
2023-05-02T02:05:20.848Z,51.40
2023-05-02T02:07:48.209Z,46.37
2023-05-02T02:10:15.401Z,60.07
2023-05-02T02:12:43.309Z,53.93
2023-05-02T02:15:16.560Z,42.27
2023-05-02T02:17:44.153Z,50.67
2023-05-02T02:20:11.754Z,39.67
2023-05-02T02:22:39.884Z,40.70
2023-05-02T02:25:14.176Z,32.83
2023-05-02T02:27:41.532Z,27.93
2023-05-02T02:30:11.903Z,28.70
2023-05-02T02:32:39.142Z,28.80
2023-05-02T02:35:07.048Z,28.67
2023-05-02T02:37:35.407Z,28.27
2023-05-02T02:40:21.313Z,29.03
2023-05-02T02:42:53.190Z,28.90
2023-05-02T02:45:28.239Z,32.43
2023-05-02T02:48:13.880Z,33.43
2023-05-02T02:50:47.138Z,41.03
2023-05-02T02:53:17.898Z,39.00
2023-05-02T02:55:48.802Z,40.47
2023-05-02T02:58:19.898Z,37.40
2023-05-02T03:00:47.247Z,37.43
2023-05-02T03:03:17.874Z,36.00
2023-05-02T03:05:45.050Z,33.97
2023-05-02T03:08:12.157Z,35.27
2023-05-02T03:10:39.351Z,35.93
2023-05-02T03:13:06.484Z,34.87
2023-05-02T03:15:56.750Z,32.40
2023-05-02T03:18:23.910Z,34.07
2023-05-02T03:20:51.485Z,34.63
2023-05-02T03:23:18.603Z,34.03
2023-05-02T03:25:45.705Z,41.47
2023-05-02T03:28:13.096Z,36.63
2023-05-02T03:30:41.216Z,34.90
2023-05-02T03:33:09.002Z,35.67
2023-05-02T03:35:36.246Z,36.07
2023-05-02T03:38:03.369Z,38.73
2023-05-02T03:40:30.474Z,39.93
2023-05-02T03:42:57.613Z,39.03
2023-05-02T03:45:24.715Z,38.63
2023-05-02T03:47:51.882Z,39.93
2023-05-02T03:50:19.190Z,41.73
2023-05-02T03:52:46.854Z,46.50
2023-05-02T03:55:14.020Z,47.53
2023-05-02T03:57:41.182Z,56.63
2023-05-02T04:00:08.533Z,53.57
2023-05-02T04:02:35.771Z,59.80
2023-05-02T04:05:03.024Z,57.27
2023-05-02T04:07:30.115Z,59.63
2023-05-02T04:09:57.414Z,62.60
2023-05-02T04:12:24.737Z,62.43
2023-05-02T04:14:51.871Z,61.30
2023-05-02T04:17:19.004Z,67.03
2023-05-02T04:19:46.162Z,64.20
2023-05-02T04:22:13.327Z,66.43
2023-05-02T04:24:40.486Z,67.37
2023-05-02T04:27:07.919Z,62.60
2023-05-02T04:29:35.033Z,62.87
2023-05-02T04:32:02.528Z,63.13
2023-05-02T04:34:30.355Z,62.53
2023-05-02T04:36:57.450Z,57.93
2023-05-02T04:39:24.528Z,59.93
2023-05-02T04:41:51.817Z,59.83
2023-05-02T04:44:18.904Z,59.33
2023-05-02T04:46:46.118Z,51.83
2023-05-02T04:49:13.944Z,52.03
2023-05-02T04:51:41.064Z,51.55
2023-05-02T04:54:08.173Z,45.33
2023-05-02T04:56:35.329Z,42.03
2023-05-02T04:59:02.469Z,37.72
2023-05-02T05:01:29.581Z,37.42
2023-05-02T05:03:56.991Z,35.03
2023-05-02T05:06:24.499Z,35.53
2023-05-02T05:08:51.795Z,35.72
2023-05-02T05:11:18.930Z,33.35
2023-05-02T05:13:46.263Z,30.98
2023-05-02T05:16:13.529Z,26.45
2023-05-02T05:18:40.955Z,24.88
2023-05-02T05:21:08.486Z,21.65
2023-05-02T05:23:35.983Z,21.75
2023-05-02T05:26:18.186Z,20.50
2023-05-02T05:28:45.396Z,20.92
2023-05-02T05:31:15.256Z,19.65
2023-05-02T05:33:44.149Z,18.85
2023-05-02T05:36:12.306Z,17.63
2023-05-02T05:38:39.626Z,16.65
2023-05-02T05:41:07.964Z,18.83
2023-05-02T05:43:36.625Z,13.30
2023-05-02T05:46:05.348Z,13.23
2023-05-02T05:48:32.486Z,12.23
2023-05-02T05:50:59.634Z,12.82
2023-05-02T05:53:26.838Z,13.00
2023-05-02T05:55:53.949Z,15.75
2023-05-02T05:58:21.074Z,13.52
2023-05-02T06:00:48.165Z,13.93
2023-05-02T06:03:15.531Z,15.75
2023-05-02T06:05:42.814Z,12.32
2023-05-02T06:08:10.011Z,12.70
2023-05-02T06:10:37.198Z,12.18
2023-05-02T06:13:04.381Z,12.55
2023-05-02T06:15:34.091Z,16.05
2023-05-02T06:18:01.281Z,15.98
2023-05-02T06:20:28.464Z,11.18
2023-05-02T06:22:55.911Z,10.88
2023-05-02T06:25:23.076Z,6.05
2023-05-02T06:27:50.587Z,3.70
2023-05-02T06:30:17.734Z,2.53
2023-05-02T06:32:45.017Z,2.20
2023-05-02T06:35:12.232Z,2.08
2023-05-02T06:37:39.482Z,2.97
2023-05-02T06:40:07.539Z,3.90
2023-05-02T06:42:34.627Z,2.30
2023-05-02T06:45:01.754Z,2.47
2023-05-02T06:47:28.962Z,2.05
2023-05-02T06:49:56.608Z,2.35
2023-05-02T06:52:23.745Z,3.03
2023-05-02T06:54:51.030Z,3.13
2023-05-02T06:57:18.197Z,3.22
2023-05-02T06:59:45.475Z,12.20
2023-05-02T07:02:12.612Z,10.18
2023-05-02T07:04:39.821Z,10.68
2023-05-02T07:07:07.066Z,8.80
2023-05-02T07:09:34.236Z,8.75
2023-05-02T07:12:04.615Z,10.57
2023-05-02T07:14:33.263Z,12.52
2023-05-02T07:17:00.482Z,10.43
2023-05-02T07:19:27.651Z,11.73
2023-05-02T07:21:54.829Z,10.68
2023-05-02T07:24:21.947Z,12.63
2023-05-02T07:26:49.083Z,15.30
2023-05-02T07:29:16.254Z,13.30
2023-05-02T07:31:43.502Z,13.18
2023-05-02T07:34:10.720Z,9.93
2023-05-02T07:36:37.820Z,4.72
2023-05-02T07:39:04.930Z,2.88
2023-05-02T07:41:32.039Z,2.20
2023-05-02T07:43:59.223Z,2.00
2023-05-02T07:46:26.431Z,8.68
2023-05-02T07:48:54.189Z,2.33
2023-05-02T07:51:21.669Z,2.30
2023-05-02T07:53:53.762Z,4.03
2023-05-02T07:56:21.223Z,3.03
2023-05-02T07:58:48.388Z,3.50
2023-05-02T08:01:15.532Z,2.90
2023-05-02T08:03:42.833Z,2.65
2023-05-02T08:06:10.383Z,3.35
2023-05-02T08:08:37.914Z,2.50
2023-05-02T08:11:05.062Z,3.40
2023-05-02T08:13:32.185Z,2.90
2023-05-02T08:15:59.937Z,3.00
2023-05-02T08:18:27.268Z,2.38
2023-05-02T08:20:56.653Z,2.65
2023-05-02T08:23:23.806Z,3.00
2023-05-02T08:25:51.001Z,2.50
2023-05-02T08:28:18.651Z,2.95
2023-05-02T08:30:45.987Z,7.90
2023-05-02T08:33:13.108Z,3.72
2023-05-02T08:35:40.635Z,4.65
2023-05-02T08:38:07.859Z,4.20
2023-05-02T08:40:42.102Z,2.97
2023-05-02T08:43:10.921Z,3.40
2023-05-02T08:45:41.655Z,3.83
2023-05-02T08:48:13.219Z,3.00
2023-05-02T08:50:41.719Z,2.60
2023-05-02T08:53:09.299Z,2.85
2023-05-02T08:55:39.815Z,8.15
2023-05-02T08:58:07.268Z,2.45
2023-05-02T09:00:34.465Z,2.45
2023-05-02T09:03:09.857Z,2.70
2023-05-02T09:05:40.704Z,3.00
2023-05-02T09:08:08.280Z,3.00
2023-05-02T09:10:39.101Z,3.05
2023-05-02T09:13:24.868Z,2.35
2023-05-02T09:16:02.262Z,2.60
2023-05-02T09:18:30.397Z,2.22
2023-05-02T09:20:59.018Z,2.40
2023-05-02T09:23:35.261Z,2.50
2023-05-02T09:26:02.401Z,2.47
2023-05-02T09:28:39.349Z,2.22
2023-05-02T09:31:07.469Z,2.33
2023-05-02T09:33:34.623Z,2.50
2023-05-02T09:36:02.071Z,2.53
2023-05-02T09:38:29.163Z,2.80
2023-05-02T09:40:56.525Z,2.65
2023-05-02T09:43:23.739Z,2.65
2023-05-02T09:46:20.229Z,2.65
2023-05-02T09:48:57.107Z,2.65
2023-05-02T09:51:25.031Z,2.63
2023-05-02T09:53:52.240Z,2.90
2023-05-02T09:56:19.580Z,2.45
2023-05-02T09:58:46.753Z,2.42
2023-05-02T10:01:19.966Z,2.55
2023-05-02T10:03:47.910Z,2.08
2023-05-02T10:06:15.988Z,2.30
2023-05-02T10:08:45.452Z,2.20
2023-05-02T10:11:12.898Z,2.38
2023-05-02T10:13:40.164Z,2.30
2023-05-02T10:16:07.731Z,2.20
2023-05-02T10:18:47.307Z,2.35
2023-05-02T10:21:17.371Z,2.65
2023-05-02T10:23:44.523Z,2.30
2023-05-02T10:26:13.286Z,2.15
2023-05-02T10:28:40.417Z,2.72
2023-05-02T10:31:07.564Z,2.20
2023-05-02T10:33:34.749Z,2.67
2023-05-02T10:36:01.863Z,2.40
2023-05-02T10:38:29.584Z,2.17
2023-05-02T10:40:58.712Z,2.53
2023-05-02T10:43:26.749Z,2.40
2023-05-02T10:45:54.878Z,1.90
2023-05-02T10:48:22.897Z,2.35
2023-05-02T10:50:53.708Z,2.40
2023-05-02T10:53:30.757Z,2.25
2023-05-02T10:56:17.023Z,2.08
2023-05-02T10:58:44.812Z,2.15
2023-05-02T11:01:36.359Z,2.47
2023-05-02T11:04:10.137Z,2.55
2023-05-02T11:06:55.914Z,2.00
2023-05-02T11:09:23.067Z,2.25
2023-05-02T11:11:52.439Z,2.10
2023-05-02T11:14:32.596Z,2.20
2023-05-02T11:16:59.901Z,2.38
2023-05-02T11:19:29.015Z,2.00
2023-05-02T11:22:15.541Z,3.78
2023-05-02T11:24:44.426Z,54.85
2023-05-02T11:27:33.631Z,23.42
2023-05-02T11:30:01.214Z,6.60
2023-05-02T11:32:49.582Z,5.18
2023-05-02T11:35:16.919Z,5.47
2023-05-02T11:37:44.024Z,3.80
2023-05-02T11:40:14.451Z,3.40
2023-05-02T11:42:42.206Z,3.13
2023-05-02T11:45:10.088Z,2.60
2023-05-02T11:47:37.328Z,5.03
2023-05-02T11:50:07.928Z,2.80
2023-05-02T11:52:38.897Z,3.30
2023-05-02T11:55:15.218Z,2.60
2023-05-02T11:57:42.983Z,2.92
2023-05-02T12:00:13.202Z,3.22
2023-05-02T12:02:44.130Z,3.10
2023-05-02T12:05:12.358Z,3.80
2023-05-02T12:07:39.858Z,2.50
2023-05-02T12:10:07.526Z,2.42
2023-05-02T12:12:34.760Z,11.02
2023-05-02T12:15:08.270Z,3.60
2023-05-02T12:17:35.909Z,4.20
2023-05-02T12:20:06.072Z,5.25
2023-05-02T12:22:33.225Z,6.30
2023-05-02T12:25:00.719Z,6.22
2023-05-02T12:27:28.062Z,6.65
2023-05-02T12:29:57.319Z,3.55
2023-05-02T12:32:29.012Z,3.20
2023-05-02T12:34:56.322Z,4.05
2023-05-02T12:37:24.496Z,3.97
2023-05-02T12:39:53.415Z,4.85
2023-05-02T12:42:21.299Z,9.50
2023-05-02T12:44:49.091Z,12.88
2023-05-02T12:47:16.689Z,5.38
2023-05-02T12:49:50.200Z,7.55
2023-05-02T12:52:20.484Z,10.90
2023-05-02T12:54:47.752Z,12.93
2023-05-02T12:57:24.913Z,10.23
2023-05-02T12:59:54.848Z,10.50
2023-05-02T13:02:22.780Z,8.70
2023-05-02T13:04:50.141Z,6.20
2023-05-02T13:07:17.264Z,4.53
2023-05-02T13:09:44.431Z,10.77
2023-05-02T13:12:11.572Z,10.70
2023-05-02T13:14:39.263Z,26.27
2023-05-02T13:17:09.048Z,30.63
2023-05-02T13:19:38.676Z,21.00
2023-05-02T13:22:06.016Z,10.30
2023-05-02T13:24:33.408Z,7.40
2023-05-02T13:27:00.557Z,7.68
2023-05-02T13:29:27.806Z,7.80
2023-05-02T13:31:54.888Z,8.23
2023-05-02T13:34:22.013Z,20.45
2023-05-02T13:36:49.142Z,22.77
2023-05-02T13:39:16.326Z,30.83
2023-05-02T13:41:43.511Z,22.60
2023-05-02T13:44:10.698Z,14.18
2023-05-02T13:46:38.376Z,10.68
2023-05-02T13:49:05.698Z,9.35
2023-05-02T13:51:33.019Z,5.63
2023-05-02T13:54:00.329Z,5.07
2023-05-02T13:56:27.520Z,5.38
2023-05-02T13:58:54.633Z,5.90
2023-05-02T14:01:21.818Z,5.85
2023-05-02T14:03:49.203Z,6.43
2023-05-02T14:06:16.611Z,6.93
2023-05-02T14:08:44.811Z,8.95
2023-05-02T14:11:11.992Z,9.60
2023-05-02T14:13:39.123Z,10.40
2023-05-02T14:16:06.536Z,11.00
2023-05-02T14:18:33.884Z,10.25
2023-05-02T14:21:01.220Z,9.70
2023-05-02T14:23:28.374Z,13.10
2023-05-02T14:25:55.889Z,13.80
2023-05-02T14:28:23.387Z,15.88
2023-05-02T14:30:50.832Z,10.07
2023-05-02T14:33:17.980Z,7.72
2023-05-02T14:35:45.770Z,7.78
2023-05-02T14:38:12.952Z,6.82
2023-05-02T14:40:40.521Z,6.22
2023-05-02T14:43:08.342Z,5.97
2023-05-02T14:45:35.560Z,7.20
2023-05-02T14:48:02.818Z,7.07
2023-05-02T14:50:29.967Z,7.57
2023-05-02T14:52:57.224Z,6.97
2023-05-02T14:55:24.402Z,27.10
2023-05-02T14:57:51.957Z,22.75
2023-05-02T15:00:19.097Z,25.95
2023-05-02T15:02:46.423Z,26.27
2023-05-02T15:05:13.802Z,24.15
2023-05-02T15:07:41.188Z,20.73
2023-05-02T15:10:08.715Z,11.55
2023-05-02T15:12:35.969Z,9.95
2023-05-02T15:15:03.348Z,15.85
2023-05-02T15:17:30.568Z,12.40
2023-05-02T15:19:58.622Z,20.45
2023-05-02T15:22:26.259Z,20.80
2023-05-02T15:24:53.669Z,13.77
2023-05-02T15:27:20.929Z,14.60
2023-05-02T15:29:48.092Z,14.05
2023-05-02T15:32:15.325Z,17.77
2023-05-02T15:34:42.501Z,12.15
2023-05-02T15:37:11.258Z,12.15
2023-05-02T15:39:38.496Z,8.65
2023-05-02T15:42:05.834Z,7.13
2023-05-02T15:44:37.154Z,7.80
2023-05-02T15:47:04.603Z,7.43
2023-05-02T15:49:33.273Z,8.90
2023-05-02T15:52:01.098Z,7.90
2023-05-02T15:54:28.348Z,9.10
2023-05-02T15:56:55.827Z,12.77
2023-05-02T15:59:22.970Z,12.70
2023-05-02T16:01:50.172Z,14.23
2023-05-02T16:04:17.555Z,14.90
2023-05-02T16:06:44.862Z,13.98
2023-05-02T16:09:12.910Z,15.18
2023-05-02T16:11:40.097Z,22.42
2023-05-02T16:14:07.286Z,18.13
2023-05-02T16:16:34.521Z,12.68
2023-05-02T16:19:01.700Z,11.48
2023-05-02T16:21:28.889Z,17.80
2023-05-02T16:23:56.169Z,45.38
2023-05-02T16:26:23.272Z,70.30
2023-05-02T16:28:50.405Z,6.15
2023-05-02T16:31:17.593Z,12.00
2023-05-02T16:33:44.829Z,31.27
2023-05-02T16:36:11.976Z,178.48
2023-05-02T16:38:39.194Z,131.20
2023-05-02T16:41:07.229Z,41.25
2023-05-02T16:43:34.844Z,19.13
2023-05-02T16:46:02.028Z,14.40
2023-05-02T16:48:29.219Z,26.67
2023-05-02T16:50:57.175Z,39.08
2023-05-02T16:53:24.557Z,16.58
2023-05-02T16:55:51.699Z,23.83
2023-05-02T16:58:19.176Z,49.55
2023-05-02T17:00:46.603Z,33.38
2023-05-02T17:03:13.852Z,52.70
2023-05-02T17:05:41.467Z,31.52
2023-05-02T17:08:09.270Z,37.05
2023-05-02T17:10:37.569Z,29.67
2023-05-02T17:13:04.664Z,23.55
2023-05-02T17:15:31.891Z,23.90
2023-05-02T17:17:59.032Z,18.88
2023-05-02T17:20:26.272Z,12.40
2023-05-02T17:22:54.428Z,17.52
2023-05-02T17:25:21.584Z,14.90
2023-05-02T17:27:48.698Z,15.50
2023-05-02T17:30:16.050Z,11.07
2023-05-02T17:32:43.255Z,18.75
2023-05-02T17:35:10.516Z,7.10
2023-05-02T17:37:39.875Z,9.07
2023-05-02T17:40:07.333Z,24.95
2023-05-02T17:42:34.460Z,25.98
2023-05-02T17:45:01.725Z,12.88
2023-05-02T17:47:28.852Z,13.48
2023-05-02T17:49:56.008Z,15.18
2023-05-02T17:52:23.204Z,35.25
2023-05-02T17:54:50.296Z,49.40
2023-05-02T17:57:17.642Z,28.27
2023-05-02T17:59:44.792Z,18.70
2023-05-02T18:02:11.963Z,14.80
2023-05-02T18:04:39.178Z,7.10
2023-05-02T18:07:06.536Z,14.75
2023-05-02T18:09:33.654Z,22.52
2023-05-02T18:12:04.278Z,19.30
2023-05-02T18:14:31.580Z,37.80
2023-05-02T18:16:58.847Z,27.40
2023-05-02T18:19:25.960Z,29.38
2023-05-02T18:21:53.516Z,23.90
2023-05-02T18:24:20.720Z,22.35
2023-05-02T18:26:49.321Z,19.73
2023-05-02T18:29:16.445Z,17.50
2023-05-02T18:31:43.616Z,16.42
2023-05-02T18:34:11.217Z,20.45
2023-05-02T18:36:39.170Z,21.98
2023-05-02T18:39:06.294Z,22.33
2023-05-02T18:41:33.385Z,22.55
2023-05-02T18:44:00.865Z,25.90
2023-05-02T18:46:28.139Z,26.38
2023-05-02T18:48:55.595Z,26.23
2023-05-02T18:51:23.803Z,28.98
2023-05-02T18:53:51.506Z,37.70
2023-05-02T18:56:18.690Z,33.45
2023-05-02T18:58:46.559Z,45.90
2023-05-02T19:01:14.885Z,48.65
2023-05-02T19:03:43.531Z,44.15
2023-05-02T19:06:11.165Z,49.20
2023-05-02T19:08:42.473Z,29.00
2023-05-02T19:11:09.741Z,21.60
2023-05-02T19:13:36.947Z,20.77
2023-05-02T19:16:05.584Z,21.98
2023-05-02T19:18:33.151Z,23.52
2023-05-02T19:21:00.831Z,27.77
2023-05-02T19:23:28.101Z,35.75
2023-05-02T19:25:55.243Z,44.00
2023-05-02T19:28:22.939Z,49.20
2023-05-02T19:30:50.100Z,57.60
2023-05-02T19:33:17.475Z,63.15
2023-05-02T19:35:44.610Z,60.72
2023-05-02T19:38:12.461Z,50.25
2023-05-02T19:40:39.623Z,52.72
2023-05-02T19:43:06.756Z,42.72
2023-05-02T19:45:34.109Z,42.28
2023-05-02T19:48:01.311Z,35.88
2023-05-02T19:50:28.970Z,36.13
2023-05-02T19:52:56.716Z,41.78
2023-05-02T19:55:23.920Z,54.65
2023-05-02T19:57:51.073Z,65.95
2023-05-02T20:00:18.290Z,56.55
2023-05-02T20:02:45.867Z,60.47
2023-05-02T20:05:13.066Z,55.78
2023-05-02T20:07:40.232Z,50.85
2023-05-02T20:10:07.756Z,50.50
2023-05-02T20:12:34.897Z,48.47
2023-05-02T20:15:02.355Z,49.40
2023-05-02T20:17:29.511Z,54.00
2023-05-02T20:19:57.453Z,57.20
2023-05-02T20:22:24.553Z,50.22
2023-05-02T20:24:51.687Z,50.90
2023-05-02T20:27:18.851Z,50.60
2023-05-02T20:29:45.970Z,55.65
2023-05-02T20:32:13.257Z,55.25
2023-05-02T20:34:40.702Z,54.25
2023-05-02T20:37:07.879Z,56.95
2023-05-02T20:39:35.200Z,68.85
2023-05-02T20:42:04.135Z,72.70
2023-05-02T20:44:36.489Z,76.90
2023-05-02T20:47:03.902Z,75.93
2023-05-02T20:49:32.352Z,73.18
2023-05-02T20:51:59.792Z,64.65
2023-05-02T20:54:26.896Z,64.25
2023-05-02T20:56:54.028Z,53.67
2023-05-02T20:59:21.145Z,63.00
2023-05-02T21:01:48.318Z,54.00
2023-05-02T21:04:15.561Z,54.17
2023-05-02T21:06:42.789Z,52.50
2023-05-02T21:09:09.966Z,51.75
2023-05-02T21:11:37.116Z,50.08
2023-05-02T21:14:04.347Z,41.60
2023-05-02T21:16:31.584Z,32.30
2023-05-02T21:18:58.774Z,27.15
2023-05-02T21:21:25.901Z,26.17
2023-05-02T21:23:53.008Z,27.30
2023-05-02T21:26:20.141Z,26.23
2023-05-02T21:28:47.290Z,27.58
2023-05-02T21:31:14.469Z,35.50
2023-05-02T21:33:41.641Z,45.60
2023-05-02T21:36:08.894Z,28.90
2023-05-02T21:38:35.994Z,28.90
2023-05-02T21:41:03.504Z,29.90
2023-05-02T21:43:31.807Z,32.80
2023-05-02T21:45:58.934Z,59.70
2023-05-02T21:48:26.122Z,60.10
2023-05-02T21:50:53.287Z,48.63
2023-05-02T21:53:20.742Z,46.65
2023-05-02T21:55:47.958Z,46.55
2023-05-02T21:58:15.100Z,47.47
2023-05-02T22:00:43.352Z,52.88
2023-05-02T22:03:11.936Z,45.00
2023-05-02T22:05:39.907Z,44.60
2023-05-02T22:08:07.835Z,48.17
2023-05-02T22:10:41.733Z,49.00
2023-05-02T22:13:10.262Z,42.47
2023-05-02T22:15:37.659Z,39.22
2023-05-02T22:18:06.797Z,44.08
2023-05-02T22:20:34.121Z,43.15
2023-05-02T22:23:01.319Z,49.75
2023-05-02T22:25:28.981Z,48.63
2023-05-02T22:27:56.090Z,41.08
2023-05-02T22:30:23.394Z,38.17
2023-05-02T22:32:50.648Z,41.30
2023-05-02T22:35:18.075Z,45.58
2023-05-02T22:37:45.275Z,41.20
2023-05-02T22:40:12.890Z,39.35
2023-05-02T22:42:40.091Z,36.25
2023-05-02T22:45:10.706Z,35.50
2023-05-02T22:47:37.932Z,34.88
2023-05-02T22:50:05.681Z,32.53
2023-05-02T22:52:37.849Z,34.58
2023-05-02T22:55:09.370Z,33.63
2023-05-02T22:57:37.267Z,32.70
2023-05-02T23:00:09.224Z,30.98
2023-05-02T23:02:36.697Z,28.40
2023-05-02T23:05:07.049Z,27.85
2023-05-02T23:07:34.393Z,28.17
2023-05-02T23:10:01.846Z,25.58
2023-05-02T23:12:29.158Z,23.58
2023-05-02T23:14:56.909Z,24.50
2023-05-02T23:17:24.084Z,27.38
2023-05-02T23:19:51.272Z,34.40
2023-05-02T23:22:18.378Z,34.53
2023-05-02T23:24:48.342Z,32.97
2023-05-02T23:27:15.745Z,26.75
2023-05-02T23:29:42.928Z,24.60
2023-05-02T23:32:10.160Z,24.17
2023-05-02T23:34:37.384Z,24.77
2023-05-02T23:37:05.993Z,24.40
2023-05-02T23:39:33.438Z,22.45
2023-05-02T23:42:03.812Z,22.13
2023-05-02T23:44:33.734Z,21.27
2023-05-02T23:47:00.930Z,21.73
2023-05-02T23:49:28.254Z,23.08
2023-05-02T23:51:55.475Z,20.90
2023-05-02T23:54:22.740Z,14.27
2023-05-02T23:56:49.924Z,14.70
2023-05-02T23:59:17.077Z,16.67
